Time;durP1;ratioP1;P1;durP2;ratioP2;P2;SDS_P1;SDS_P2;PMS_P1;PMS_P2;Temp;Humidity;BMP_temperature;BMP_pressure;BME280_temperature;BME280_humidity;BME280_pressure;Samples;Min_cycle;Max_cycle;Signal;HPM_P1;HPM_P2
2023/11/10 00:00:50;;;;;;;5.30;2.33;;;;;;;;;;2614657;54;20355;-77
2023/11/10 00:03:17;;;;;;;3.97;1.63;;;;;;;;;;2614174;54;20409;-77
2023/11/10 00:05:43;;;;;;;6.43;1.80;;;;;;;;;;2614109;54;20464;-77
2023/11/10 00:08:13;;;;;;;1.93;1.17;;;;;;;;;;2613869;54;20503;-75
2023/11/10 00:10:39;;;;;;;2.90;1.70;;;;;;;;;;2612353;47;20427;-76
2023/11/10 00:13:05;;;;;;;3.30;1.57;;;;;;;;;;2614149;54;20406;-75
2023/11/10 00:15:31;;;;;;;6.07;1.70;;;;;;;;;;2613264;47;20408;-74
2023/11/10 00:18:00;;;;;;;5.00;1.60;;;;;;;;;;2613927;54;20426;-75
2023/11/10 00:20:26;;;;;;;8.47;2.40;;;;;;;;;;2613029;54;20387;-75
2023/11/10 00:22:52;;;;;;;4.60;1.80;;;;;;;;;;2614037;54;21064;-74
2023/11/10 00:25:18;;;;;;;7.53;2.03;;;;;;;;;;2613976;54;20410;-75
2023/11/10 00:27:44;;;;;;;7.50;1.67;;;;;;;;;;2614417;54;20396;-77
2023/11/10 00:30:12;;;;;;;3.27;1.93;;;;;;;;;;2614451;54;20490;-77
2023/11/10 00:32:39;;;;;;;4.03;1.97;;;;;;;;;;2615077;54;20571;-78
2023/11/10 00:35:05;;;;;;;2.03;1.17;;;;;;;;;;2615559;54;20407;-78
2023/11/10 00:37:31;;;;;;;7.00;1.60;;;;;;;;;;2615590;54;20413;-75
2023/11/10 00:39:59;;;;;;;2.30;1.50;;;;;;;;;;2615187;54;20412;-74
2023/11/10 00:42:25;;;;;;;5.20;1.70;;;;;;;;;;2615472;54;21314;-75
2023/11/10 00:44:52;;;;;;;3.80;1.73;;;;;;;;;;2614750;39;20903;-75
2023/11/10 00:47:18;;;;;;;4.23;1.57;;;;;;;;;;2614971;47;20470;-75
2023/11/10 00:49:44;;;;;;;3.60;1.50;;;;;;;;;;2614293;54;20401;-75
2023/11/10 00:52:10;;;;;;;4.77;2.23;;;;;;;;;;2614217;47;20442;-75
2023/11/10 00:54:37;;;;;;;2.30;1.70;;;;;;;;;;2614893;54;20438;-76
2023/11/10 00:57:03;;;;;;;3.97;1.80;;;;;;;;;;2613835;54;20424;-76
2023/11/10 00:59:29;;;;;;;3.53;1.60;;;;;;;;;;2613831;54;20424;-75
2023/11/10 01:01:55;;;;;;;4.23;1.63;;;;;;;;;;2614694;31;20959;-75
2023/11/10 01:04:22;;;;;;;4.57;2.23;;;;;;;;;;2613936;46;20430;-75
2023/11/10 01:06:47;;;;;;;3.00;1.30;;;;;;;;;;2614766;54;21299;-75
2023/11/10 01:09:15;;;;;;;3.00;1.50;;;;;;;;;;2614167;54;20410;-74
2023/11/10 01:11:42;;;;;;;3.00;1.73;;;;;;;;;;2614629;54;20563;-76
2023/11/10 01:14:08;;;;;;;2.03;1.00;;;;;;;;;;2613933;47;21806;-76
2023/11/10 01:16:34;;;;;;;7.17;1.30;;;;;;;;;;2613988;47;20458;-76
2023/11/10 01:19:00;;;;;;;3.00;1.70;;;;;;;;;;2614668;54;20396;-76
2023/11/10 01:21:27;;;;;;;7.13;1.63;;;;;;;;;;2613613;49;20446;-74
2023/11/10 01:23:53;;;;;;;9.90;1.37;;;;;;;;;;2614708;39;20793;-76
2023/11/10 01:26:19;;;;;;;2.40;1.40;;;;;;;;;;2613579;54;20914;-74
2023/11/10 01:28:46;;;;;;;4.00;2.13;;;;;;;;;;2614678;54;20410;-75
2023/11/10 01:31:14;;;;;;;3.43;1.20;;;;;;;;;;2613781;54;20427;-74
2023/11/10 01:33:40;;;;;;;3.50;1.20;;;;;;;;;;2614854;54;20431;-75
2023/11/10 01:36:06;;;;;;;13.83;2.10;;;;;;;;;;2613925;54;20419;-74
2023/11/10 01:38:32;;;;;;;2.00;1.37;;;;;;;;;;2614407;54;20410;-74
2023/11/10 01:40:58;;;;;;;3.17;1.33;;;;;;;;;;2614245;54;20400;-75
2023/11/10 01:43:24;;;;;;;2.13;1.00;;;;;;;;;;2614883;54;20404;-75
2023/11/10 01:45:51;;;;;;;2.10;1.33;;;;;;;;;;2613458;54;20463;-75
2023/11/10 01:48:17;;;;;;;3.43;1.60;;;;;;;;;;2613126;39;20943;-76
2023/11/10 01:50:44;;;;;;;5.90;1.30;;;;;;;;;;2614558;54;20415;-74
2023/11/10 01:53:10;;;;;;;3.13;1.60;;;;;;;;;;2614574;46;20458;-75
2023/11/10 01:55:37;;;;;;;3.00;1.67;;;;;;;;;;2614512;39;20792;-75
2023/11/10 01:58:05;;;;;;;1.73;1.20;;;;;;;;;;2614274;39;20787;-75
2023/11/10 02:00:32;;;;;;;3.80;1.80;;;;;;;;;;2614278;54;20953;-76
2023/11/10 02:03:04;;;;;;;1.90;1.13;;;;;;;;;;2614627;46;20470;-76
2023/11/10 02:05:33;;;;;;;2.00;1.53;;;;;;;;;;2614402;54;20437;-75
2023/11/10 02:08:02;;;;;;;4.77;1.93;;;;;;;;;;2613696;47;20400;-75
2023/11/10 02:10:28;;;;;;;3.20;1.80;;;;;;;;;;2614593;54;20400;-75
2023/11/10 02:12:56;;;;;;;3.10;2.07;;;;;;;;;;2614565;39;20795;-75
2023/11/10 02:15:23;;;;;;;2.80;1.47;;;;;;;;;;2614522;54;20382;-75
2023/11/10 02:17:49;;;;;;;2.13;1.93;;;;;;;;;;2613628;47;20454;-76
2023/11/10 02:20:15;;;;;;;3.57;2.10;;;;;;;;;;2614644;54;20411;-75
2023/11/10 02:22:42;;;;;;;2.87;1.77;;;;;;;;;;2614770;54;20539;-75
2023/11/10 02:25:13;;;;;;;2.93;1.90;;;;;;;;;;2614346;54;20504;-75
2023/11/10 02:27:39;;;;;;;3.90;1.60;;;;;;;;;;2614436;54;20598;-75
2023/11/10 02:30:05;;;;;;;2.80;2.10;;;;;;;;;;2614618;47;20412;-76
2023/11/10 02:32:32;;;;;;;4.37;3.13;;;;;;;;;;2614150;47;20412;-78
2023/11/10 02:34:58;;;;;;;4.20;2.30;;;;;;;;;;2614856;46;20513;-78
2023/11/10 02:37:24;;;;;;;3.40;1.87;;;;;;;;;;2614838;54;20426;-77
2023/11/10 02:39:50;;;;;;;3.90;1.50;;;;;;;;;;2614107;54;20422;-78
2023/11/10 02:42:16;;;;;;;3.50;2.17;;;;;;;;;;2614878;54;20434;-77
2023/11/10 02:44:42;;;;;;;4.47;2.33;;;;;;;;;;2614642;54;20446;-78
2023/11/10 02:47:09;;;;;;;5.80;1.80;;;;;;;;;;2614579;54;20466;-77
2023/11/10 02:49:35;;;;;;;4.00;2.33;;;;;;;;;;2615934;54;20403;-74
2023/11/10 02:52:01;;;;;;;2.30;1.30;;;;;;;;;;2614172;47;20441;-74
2023/11/10 02:54:27;;;;;;;3.30;1.63;;;;;;;;;;2614882;54;20418;-75
2023/11/10 02:56:56;;;;;;;2.57;1.67;;;;;;;;;;2614649;39;20942;-75
2023/11/10 02:59:23;;;;;;;4.93;2.30;;;;;;;;;;2615573;39;20905;-76
2023/11/10 03:01:49;;;;;;;5.50;1.80;;;;;;;;;;2614387;54;20408;-76
2023/11/10 03:04:15;;;;;;;2.37;1.63;;;;;;;;;;2614946;54;20415;-76
2023/11/10 03:06:41;;;;;;;5.00;1.60;;;;;;;;;;2613702;47;20455;-74
2023/11/10 03:09:07;;;;;;;3.80;1.80;;;;;;;;;;2614706;54;20527;-76
2023/11/10 03:11:33;;;;;;;6.67;1.77;;;;;;;;;;2613811;54;20502;-76
2023/11/10 03:14:00;;;;;;;3.20;2.00;;;;;;;;;;2614915;54;20960;-75
2023/11/10 03:16:25;;;;;;;5.40;1.80;;;;;;;;;;2614688;54;20566;-75
2023/11/10 03:18:52;;;;;;;5.73;2.00;;;;;;;;;;2614934;39;20780;-76
2023/11/10 03:21:19;;;;;;;3.37;1.80;;;;;;;;;;2614697;39;20856;-73
2023/11/10 03:23:45;;;;;;;4.27;1.70;;;;;;;;;;2613982;54;20525;-74
2023/11/10 03:26:11;;;;;;;4.63;2.00;;;;;;;;;;2613435;54;20429;-76
2023/11/10 03:28:37;;;;;;;4.20;1.93;;;;;;;;;;2614620;54;20392;-75
2023/11/10 03:31:07;;;;;;;6.73;1.63;;;;;;;;;;2613860;54;20458;-74
2023/11/10 03:33:36;;;;;;;2.67;1.60;;;;;;;;;;2614476;54;20521;-75
2023/11/10 03:36:08;;;;;;;3.73;1.80;;;;;;;;;;2614077;47;20906;-74
2023/11/10 03:38:34;;;;;;;3.70;1.90;;;;;;;;;;2614142;54;20980;-74
2023/11/10 03:41:01;;;;;;;5.67;1.90;;;;;;;;;;2614482;54;20378;-75
2023/11/10 03:43:28;;;;;;;7.33;2.27;;;;;;;;;;2614368;54;20458;-75
2023/11/10 03:45:55;;;;;;;5.60;2.00;;;;;;;;;;2613790;54;20392;-75
2023/11/10 03:48:22;;;;;;;4.37;2.23;;;;;;;;;;2614449;54;20497;-75
2023/11/10 03:50:49;;;;;;;7.17;1.50;;;;;;;;;;2613821;54;20400;-76
2023/11/10 03:53:16;;;;;;;3.53;1.60;;;;;;;;;;2614412;54;20418;-75
2023/11/10 03:55:42;;;;;;;3.20;2.10;;;;;;;;;;2613978;47;20415;-75
2023/11/10 03:58:09;;;;;;;6.77;2.00;;;;;;;;;;2613901;54;21017;-75
2023/11/10 04:00:35;;;;;;;2.67;1.70;;;;;;;;;;2613377;47;20412;-74
2023/11/10 04:03:01;;;;;;;3.70;1.80;;;;;;;;;;2613683;54;20403;-75
2023/11/10 04:05:27;;;;;;;3.27;2.47;;;;;;;;;;2614475;54;20554;-75
2023/11/10 04:07:54;;;;;;;2.63;1.60;;;;;;;;;;2615273;54;20399;-74
2023/11/10 04:10:21;;;;;;;7.70;1.77;;;;;;;;;;2614349;54;20964;-74
2023/11/10 04:12:47;;;;;;;4.37;1.70;;;;;;;;;;2615022;54;20514;-74
2023/11/10 04:15:14;;;;;;;4.13;1.57;;;;;;;;;;2614753;39;20986;-74
2023/11/10 04:17:40;;;;;;;3.80;1.53;;;;;;;;;;2614224;47;20443;-74
2023/11/10 04:20:06;;;;;;;3.07;1.77;;;;;;;;;;2615210;39;20803;-73
2023/11/10 04:22:33;;;;;;;1.93;1.10;;;;;;;;;;2614193;47;20399;-75
2023/11/10 04:24:59;;;;;;;5.00;1.70;;;;;;;;;;2614766;54;20427;-75
2023/11/10 04:27:25;;;;;;;3.93;1.67;;;;;;;;;;2614036;47;20506;-74
2023/11/10 04:29:51;;;;;;;3.40;2.13;;;;;;;;;;2614455;54;20391;-74
2023/11/10 04:32:17;;;;;;;4.20;2.20;;;;;;;;;;2614434;54;20951;-74
2023/11/10 04:34:43;;;;;;;2.47;1.60;;;;;;;;;;2614538;54;20411;-75
2023/11/10 04:37:09;;;;;;;3.90;1.70;;;;;;;;;;2614769;31;20897;-74
2023/11/10 04:39:36;;;;;;;4.13;2.10;;;;;;;;;;2614752;54;20407;-76
2023/11/10 04:42:02;;;;;;;4.70;2.30;;;;;;;;;;2614809;54;20514;-76
2023/11/10 04:44:28;;;;;;;2.63;2.20;;;;;;;;;;2614552;54;20422;-74
2023/11/10 04:46:54;;;;;;;5.33;1.80;;;;;;;;;;2615061;54;20394;-74
2023/11/10 04:49:20;;;;;;;4.10;1.73;;;;;;;;;;2614568;54;20954;-75
2023/11/10 04:51:48;;;;;;;3.10;1.70;;;;;;;;;;2613864;47;20423;-75
2023/11/10 04:54:14;;;;;;;5.30;2.50;;;;;;;;;;2614142;54;20428;-76
2023/11/10 04:56:46;;;;;;;5.60;2.57;;;;;;;;;;2614420;54;20397;-73
2023/11/10 04:59:13;;;;;;;6.50;1.83;;;;;;;;;;2614795;54;20383;-74
2023/11/10 05:01:39;;;;;;;11.50;1.97;;;;;;;;;;2614279;46;20408;-75
2023/11/10 05:04:07;;;;;;;2.77;1.90;;;;;;;;;;2614505;39;20799;-76
2023/11/10 05:06:33;;;;;;;2.73;1.67;;;;;;;;;;2613810;39;20888;-76
2023/11/10 05:08:59;;;;;;;4.53;1.60;;;;;;;;;;2614189;54;20402;-73
2023/11/10 05:11:26;;;;;;;2.67;1.73;;;;;;;;;;2614308;54;20442;-74
2023/11/10 05:13:52;;;;;;;8.10;2.30;;;;;;;;;;2614332;46;21256;-75
2023/11/10 05:16:19;;;;;;;4.13;1.70;;;;;;;;;;2614839;54;20397;-75
2023/11/10 05:18:45;;;;;;;4.30;1.67;;;;;;;;;;2614008;47;20465;-75
2023/11/10 05:21:11;;;;;;;3.30;1.80;;;;;;;;;;2614634;54;20429;-75
2023/11/10 05:23:37;;;;;;;1.97;1.43;;;;;;;;;;2614833;54;20424;-75
2023/11/10 05:26:04;;;;;;;3.43;1.50;;;;;;;;;;2614573;39;20808;-74
2023/11/10 05:28:30;;;;;;;1.83;1.43;;;;;;;;;;2613918;39;20520;-74
2023/11/10 05:30:56;;;;;;;5.80;1.80;;;;;;;;;;2614160;54;20938;-76
2023/11/10 05:33:22;;;;;;;3.10;1.47;;;;;;;;;;2614664;54;20435;-75
2023/11/10 05:35:50;;;;;;;5.40;2.23;;;;;;;;;;2614721;54;20414;-76
2023/11/10 05:38:16;;;;;;;5.03;3.33;;;;;;;;;;2614979;54;20384;-75
2023/11/10 05:40:42;;;;;;;3.73;1.70;;;;;;;;;;2614262;54;20403;-75
2023/11/10 05:43:08;;;;;;;3.83;2.00;;;;;;;;;;2614361;54;21036;-75
2023/11/10 05:45:35;;;;;;;4.47;2.30;;;;;;;;;;2614259;39;20766;-74
2023/11/10 05:48:01;;;;;;;2.97;1.90;;;;;;;;;;2614475;54;20432;-74
2023/11/10 05:50:27;;;;;;;4.33;2.10;;;;;;;;;;2614461;54;20937;-75
2023/11/10 05:52:55;;;;;;;2.47;1.60;;;;;;;;;;2614323;47;20394;-75
2023/11/10 05:55:21;;;;;;;3.33;2.00;;;;;;;;;;2613614;54;21045;-73
2023/11/10 05:57:48;;;;;;;6.27;1.90;;;;;;;;;;2614561;54;20535;-74
2023/11/10 06:00:14;;;;;;;2.40;1.37;;;;;;;;;;2614043;47;20412;-78
2023/11/10 06:02:41;;;;;;;4.97;1.27;;;;;;;;;;2614552;54;21012;-79
2023/11/10 06:05:07;;;;;;;2.83;1.50;;;;;;;;;;2614779;54;20980;-78
2023/11/10 06:07:33;;;;;;;3.20;1.27;;;;;;;;;;2615203;54;20490;-79
2023/11/10 06:10:04;;;;;;;3.07;2.00;;;;;;;;;;2615417;54;20419;-84
2023/11/10 06:12:30;;;;;;;1.97;1.60;;;;;;;;;;2615310;54;20973;-84
2023/11/10 06:14:56;;;;;;;4.50;1.80;;;;;;;;;;2616044;54;20960;-76
2023/11/10 06:17:22;;;;;;;5.17;2.03;;;;;;;;;;2616063;54;20418;-77
2023/11/10 06:19:49;;;;;;;8.27;1.47;;;;;;;;;;2616194;54;20946;-77
2023/11/10 06:22:23;;;;;;;3.70;1.90;;;;;;;;;;2615842;52;20466;-77
2023/11/10 06:24:52;;;;;;;5.97;2.07;;;;;;;;;;2616553;39;20995;-77
2023/11/10 06:27:24;;;;;;;3.93;1.63;;;;;;;;;;2615934;46;20413;-76
2023/11/10 06:29:52;;;;;;;2.07;1.63;;;;;;;;;;2616210;39;20937;-76
2023/11/10 06:32:18;;;;;;;3.50;2.10;;;;;;;;;;2617014;39;20821;-77
2023/11/10 06:34:46;;;;;;;4.13;1.70;;;;;;;;;;2616252;47;20448;-76
2023/11/10 06:37:13;;;;;;;3.10;1.70;;;;;;;;;;2615790;54;20430;-78
2023/11/10 06:39:40;;;;;;;8.17;2.00;;;;;;;;;;2615667;46;20419;-78
2023/11/10 06:42:06;;;;;;;2.20;1.60;;;;;;;;;;2614096;47;20434;-77
2023/11/10 06:44:32;;;;;;;4.90;1.77;;;;;;;;;;2614896;54;20423;-77
2023/11/10 06:46:59;;;;;;;4.00;1.33;;;;;;;;;;2615436;54;20418;-79
2023/11/10 06:49:25;;;;;;;4.10;1.90;;;;;;;;;;2615594;54;21398;-77
2023/11/10 06:51:52;;;;;;;7.63;2.30;;;;;;;;;;2615437;54;20428;-78
2023/11/10 06:54:18;;;;;;;7.83;2.03;;;;;;;;;;2615227;47;20527;-77
2023/11/10 06:56:45;;;;;;;9.20;2.53;;;;;;;;;;2615005;54;20443;-76
2023/11/10 06:59:12;;;;;;;1.70;1.00;;;;;;;;;;2615517;54;20434;-78
2023/11/10 07:01:38;;;;;;;3.43;1.60;;;;;;;;;;2614441;54;20429;-77
2023/11/10 07:04:04;;;;;;;3.27;1.80;;;;;;;;;;2615705;39;20863;-77
2023/11/10 07:06:31;;;;;;;4.60;1.60;;;;;;;;;;2615222;47;20513;-78
2023/11/10 07:08:58;;;;;;;6.13;2.00;;;;;;;;;;2614636;39;20778;-74
2023/11/10 07:11:24;;;;;;;9.67;2.00;;;;;;;;;;2613363;47;20462;-75
2023/11/10 07:13:50;;;;;;;3.93;1.97;;;;;;;;;;2614369;54;20394;-76
2023/11/10 07:16:20;;;;;;;4.87;1.80;;;;;;;;;;2613503;46;20470;-76
2023/11/10 07:18:46;;;;;;;3.40;1.60;;;;;;;;;;2614437;54;20404;-75
2023/11/10 07:21:13;;;;;;;5.67;1.70;;;;;;;;;;2613136;54;20430;-76
2023/11/10 07:23:39;;;;;;;3.97;1.63;;;;;;;;;;2613671;54;20992;-75
2023/11/10 07:26:05;;;;;;;5.30;1.90;;;;;;;;;;2609860;46;20451;-75
2023/11/10 07:28:31;;;;;;;2.23;1.63;;;;;;;;;;2613425;54;20434;-76
2023/11/10 07:30:57;;;;;;;3.47;1.60;;;;;;;;;;2613605;39;20802;-75
2023/11/10 07:33:23;;;;;;;5.40;1.57;;;;;;;;;;2612393;47;20437;-75
2023/11/10 07:35:53;;;;;;;5.27;1.93;;;;;;;;;;2612928;54;20415;-75
2023/11/10 07:38:19;;;;;;;2.27;1.50;;;;;;;;;;2614364;54;20435;-75
2023/11/10 07:40:46;;;;;;;4.50;1.70;;;;;;;;;;2612609;47;20984;-76
2023/11/10 07:43:12;;;;;;;3.07;1.90;;;;;;;;;;2612915;54;20431;-76
2023/11/10 07:45:38;;;;;;;6.60;2.00;;;;;;;;;;2613655;54;21542;-75
2023/11/10 07:48:05;;;;;;;3.73;1.63;;;;;;;;;;2612490;47;20415;-75
2023/11/10 07:50:31;;;;;;;2.27;1.80;;;;;;;;;;2613669;54;20415;-75
2023/11/10 07:52:57;;;;;;;2.93;2.70;;;;;;;;;;2613843;39;20808;-75
2023/11/10 07:55:24;;;;;;;2.37;1.70;;;;;;;;;;2612403;47;20419;-77
2023/11/10 07:57:50;;;;;;;3.60;1.57;;;;;;;;;;2612411;47;20422;-75
2023/11/10 08:00:18;;;;;;;5.60;2.00;;;;;;;;;;2612178;47;20566;-75
2023/11/10 08:02:44;;;;;;;2.40;1.47;;;;;;;;;;2613058;54;20491;-74
2023/11/10 08:05:10;;;;;;;2.50;1.67;;;;;;;;;;2612092;47;20425;-75
2023/11/10 08:07:37;;;;;;;3.20;2.20;;;;;;;;;;2613531;54;21012;-75
2023/11/10 08:10:04;;;;;;;4.13;2.07;;;;;;;;;;2612657;54;20430;-75
2023/11/10 08:12:30;;;;;;;4.13;1.80;;;;;;;;;;2613959;54;20423;-75
2023/11/10 08:14:57;;;;;;;4.50;2.10;;;;;;;;;;2611085;54;20420;-76
2023/11/10 08:17:23;;;;;;;5.60;2.17;;;;;;;;;;2612879;54;20511;-76
2023/11/10 08:19:50;;;;;;;4.80;2.67;;;;;;;;;;2612825;54;20416;-75
2023/11/10 08:22:16;;;;;;;4.80;2.23;;;;;;;;;;2613366;54;20415;-75
2023/11/10 08:24:42;;;;;;;2.50;2.30;;;;;;;;;;2613646;54;20424;-75
2023/11/10 08:27:09;;;;;;;5.10;1.80;;;;;;;;;;2614283;39;20686;-75
2023/11/10 08:29:35;;;;;;;2.77;2.10;;;;;;;;;;2614012;54;20953;-74
2023/11/10 08:32:01;;;;;;;6.53;2.50;;;;;;;;;;2613420;54;20999;-75
2023/11/10 08:34:27;;;;;;;2.40;2.20;;;;;;;;;;2612747;54;21015;-76
2023/11/10 08:36:55;;;;;;;6.90;4.13;;;;;;;;;;2613296;39;20815;-76
2023/11/10 08:39:27;;;;;;;5.10;2.40;;;;;;;;;;2612571;39;20837;-75
2023/11/10 08:41:54;;;;;;;3.93;2.60;;;;;;;;;;2612119;47;20424;-76
2023/11/10 08:44:21;;;;;;;3.07;1.97;;;;;;;;;;2612952;54;20428;-76
2023/11/10 08:46:49;;;;;;;4.10;2.00;;;;;;;;;;2614280;31;20892;-77
2023/11/10 08:49:15;;;;;;;3.10;2.23;;;;;;;;;;2612856;54;20450;-76
2023/11/10 08:51:43;;;;;;;2.23;2.03;;;;;;;;;;2613144;54;20422;-74
2023/11/10 08:54:09;;;;;;;4.47;2.20;;;;;;;;;;2614574;54;20435;-76
2023/11/10 08:56:35;;;;;;;2.97;2.67;;;;;;;;;;2614290;54;21096;-76
2023/11/10 08:59:01;;;;;;;3.80;2.33;;;;;;;;;;2614295;54;20414;-76
2023/11/10 09:01:27;;;;;;;2.60;2.40;;;;;;;;;;2613637;47;20431;-76
2023/11/10 09:03:53;;;;;;;2.83;2.53;;;;;;;;;;2614179;54;20950;-76
2023/11/10 09:06:20;;;;;;;5.20;2.60;;;;;;;;;;2613583;54;20493;-76
2023/11/10 09:08:46;;;;;;;5.63;3.07;;;;;;;;;;2614110;47;20438;-77
2023/11/10 09:11:12;;;;;;;4.70;3.03;;;;;;;;;;2614263;54;20415;-75
2023/11/10 09:13:39;;;;;;;5.53;3.80;;;;;;;;;;2614141;54;20404;-76
2023/11/10 09:16:05;;;;;;;3.83;2.53;;;;;;;;;;2612848;47;20434;-76
2023/11/10 09:18:31;;;;;;;3.30;3.00;;;;;;;;;;2614731;54;20469;-75
2023/11/10 09:20:57;;;;;;;2.87;2.57;;;;;;;;;;2612811;54;20970;-76
2023/11/10 09:23:23;;;;;;;5.33;3.10;;;;;;;;;;2613739;47;20442;-76
2023/11/10 09:25:50;;;;;;;7.37;3.70;;;;;;;;;;2613925;54;21795;-75
2023/11/10 09:28:18;;;;;;;3.90;3.60;;;;;;;;;;2614020;47;20436;-75
2023/11/10 09:30:44;;;;;;;7.47;4.17;;;;;;;;;;2613423;47;20430;-75
2023/11/10 09:33:11;;;;;;;5.23;4.07;;;;;;;;;;2614943;54;20439;-76
2023/11/10 09:35:37;;;;;;;3.93;3.63;;;;;;;;;;2613502;47;20439;-76
2023/11/10 09:38:03;;;;;;;4.20;3.90;;;;;;;;;;2613640;47;20412;-75
2023/11/10 09:40:31;;;;;;;4.40;4.00;;;;;;;;;;2613335;54;20415;-75
2023/11/10 09:42:57;;;;;;;4.20;4.00;;;;;;;;;;2614739;54;20474;-75
2023/11/10 09:45:23;;;;;;;4.47;4.10;;;;;;;;;;2611634;47;20427;-76
2023/11/10 09:47:50;;;;;;;4.93;4.50;;;;;;;;;;2612998;39;20897;-76
2023/11/10 09:50:18;;;;;;;4.80;4.40;;;;;;;;;;2614519;54;20424;-78
2023/11/10 09:52:45;;;;;;;4.77;4.43;;;;;;;;;;2615254;51;20427;-78
2023/11/10 09:55:11;;;;;;;4.57;3.87;;;;;;;;;;2615811;46;20442;-78
2023/11/10 09:57:40;;;;;;;4.40;3.77;;;;;;;;;;2615237;54;20408;-77
2023/11/10 10:00:12;;;;;;;4.70;4.40;;;;;;;;;;2614756;47;20427;-77
2023/11/10 10:02:39;;;;;;;4.33;4.03;;;;;;;;;;2614188;54;20436;-76
2023/11/10 10:05:07;;;;;;;5.33;4.43;;;;;;;;;;2614424;54;20427;-76
2023/11/10 10:07:33;;;;;;;4.30;3.80;;;;;;;;;;2615686;39;21467;-77
2023/11/10 10:09:59;;;;;;;3.80;3.50;;;;;;;;;;2615444;54;20411;-78
2023/11/10 10:12:29;;;;;;;8.57;4.37;;;;;;;;;;2615132;46;20439;-78
2023/11/10 10:14:56;;;;;;;4.00;3.80;;;;;;;;;;2615575;54;20407;-77
2023/11/10 10:17:39;;;;;;;4.40;4.03;;;;;;;;;;2614931;54;20420;-78
2023/11/10 10:20:09;;;;;;;5.10;3.97;;;;;;;;;;2615034;47;20430;-77
2023/11/10 10:22:35;;;;;;;5.57;4.53;;;;;;;;;;2615799;54;20519;-77
2023/11/10 10:25:01;;;;;;;7.77;3.97;;;;;;;;;;2615637;54;20411;-77
2023/11/10 10:27:28;;;;;;;5.20;3.53;;;;;;;;;;2614992;47;20416;-76
2023/11/10 10:29:55;;;;;;;6.27;3.70;;;;;;;;;;2615237;47;20451;-77
2023/11/10 10:32:23;;;;;;;4.20;3.90;;;;;;;;;;2615262;54;21044;-76
2023/11/10 10:34:49;;;;;;;6.33;4.13;;;;;;;;;;2615039;39;20431;-77
2023/11/10 10:37:18;;;;;;;4.40;4.10;;;;;;;;;;2615277;39;20874;-77
2023/11/10 10:39:45;;;;;;;5.20;4.50;;;;;;;;;;2615628;39;20797;-78
2023/11/10 10:42:16;;;;;;;5.23;4.10;;;;;;;;;;2615370;54;20412;-78
2023/11/10 10:44:44;;;;;;;5.20;4.70;;;;;;;;;;2615571;54;21016;-78
2023/11/10 10:47:13;;;;;;;6.80;4.83;;;;;;;;;;2614723;54;20427;-77
2023/11/10 10:49:41;;;;;;;7.90;4.80;;;;;;;;;;2614499;54;20425;-77
2023/11/10 10:52:09;;;;;;;5.40;5.00;;;;;;;;;;2614913;39;20899;-78
2023/11/10 10:54:38;;;;;;;4.30;4.10;;;;;;;;;;2615273;54;20458;-79
2023/11/10 10:57:05;;;;;;;6.93;4.87;;;;;;;;;;2615792;54;20420;-78
2023/11/10 10:59:35;;;;;;;4.57;4.30;;;;;;;;;;2614713;47;20408;-79
2023/11/10 11:02:03;;;;;;;6.60;4.60;;;;;;;;;;2612683;54;20415;-76
2023/11/10 11:04:30;;;;;;;4.90;4.50;;;;;;;;;;2614061;39;20810;-76
2023/11/10 11:07:21;;;;;;;11.47;5.37;;;;;;;;;;2613666;54;20451;-76
2023/11/10 11:10:06;;;;;;;4.70;4.30;;;;;;;;;;2612742;54;20414;-77
2023/11/10 11:12:38;;;;;;;4.70;4.27;;;;;;;;;;2613847;54;20770;-76
2023/11/10 11:15:11;;;;;;;4.77;4.33;;;;;;;;;;2613212;54;20524;-76
2023/11/10 11:17:41;;;;;;;4.40;4.00;;;;;;;;;;2613370;47;20454;-76
2023/11/10 11:20:09;;;;;;;6.67;4.50;;;;;;;;;;2613519;54;20408;-76
2023/11/10 11:22:38;;;;;;;5.43;4.30;;;;;;;;;;2613691;54;20395;-76
2023/11/10 11:25:08;;;;;;;4.40;4.00;;;;;;;;;;2612299;47;20443;-75
2023/11/10 11:27:35;;;;;;;10.50;5.90;;;;;;;;;;2613533;54;20392;-76
2023/11/10 11:30:09;;;;;;;6.00;4.17;;;;;;;;;;2613483;54;20458;-75
2023/11/10 11:32:39;;;;;;;7.20;4.73;;;;;;;;;;2612884;54;20396;-75
2023/11/10 11:35:05;;;;;;;5.40;4.90;;;;;;;;;;2613500;54;20416;-74
2023/11/10 11:37:32;;;;;;;6.43;4.60;;;;;;;;;;2613347;54;20412;-75
2023/11/10 11:40:01;;;;;;;7.40;5.27;;;;;;;;;;2612468;47;21013;-76
2023/11/10 11:42:37;;;;;;;4.70;4.30;;;;;;;;;;2613197;54;21073;-75
2023/11/10 11:45:11;;;;;;;3.60;3.30;;;;;;;;;;2614084;54;20410;-76
2023/11/10 11:47:38;;;;;;;5.10;3.60;;;;;;;;;;2613879;54;20443;-75
2023/11/10 11:50:05;;;;;;;3.40;3.20;;;;;;;;;;2613684;54;20427;-76
2023/11/10 11:52:31;;;;;;;6.53;3.40;;;;;;;;;;2616347;54;20551;-77
2023/11/10 11:55:04;;;;;;;4.40;4.00;;;;;;;;;;2616435;39;20758;-77
2023/11/10 11:57:34;;;;;;;6.63;3.40;;;;;;;;;;2616040;46;20434;-77
2023/11/10 12:00:02;;;;;;;6.73;3.60;;;;;;;;;;2616547;54;20415;-77
2023/11/10 12:02:30;;;;;;;5.07;3.13;;;;;;;;;;2615928;54;20426;-77
2023/11/10 12:05:05;;;;;;;3.00;2.70;;;;;;;;;;2616171;46;20440;-76
2023/11/10 12:07:32;;;;;;;3.37;2.80;;;;;;;;;;2615862;54;20466;-77
2023/11/10 12:10:03;;;;;;;7.00;3.33;;;;;;;;;;2616318;31;20884;-77
2023/11/10 12:12:29;;;;;;;2.80;2.60;;;;;;;;;;2615712;47;20452;-77
2023/11/10 12:14:55;;;;;;;2.40;2.20;;;;;;;;;;2616011;54;20434;-77
2023/11/10 12:17:23;;;;;;;3.30;2.53;;;;;;;;;;2615332;54;20473;-78
2023/11/10 12:19:49;;;;;;;3.60;2.03;;;;;;;;;;2615040;54;20544;-77
2023/11/10 12:22:17;;;;;;;3.93;2.63;;;;;;;;;;2614658;54;20988;-78
2023/11/10 12:24:48;;;;;;;6.07;2.67;;;;;;;;;;2615382;46;20435;-77
2023/11/10 12:27:15;;;;;;;5.20;2.73;;;;;;;;;;2615481;47;20456;-77
2023/11/10 12:29:45;;;;;;;3.03;2.40;;;;;;;;;;2616773;54;20435;-77
2023/11/10 12:32:12;;;;;;;3.43;2.47;;;;;;;;;;2616168;54;21008;-78
2023/11/10 12:34:39;;;;;;;2.20;1.90;;;;;;;;;;2616793;54;20417;-78
2023/11/10 12:37:07;;;;;;;5.87;2.83;;;;;;;;;;2614896;54;20425;-77
2023/11/10 12:39:36;;;;;;;6.47;3.23;;;;;;;;;;2615809;54;20980;-77
2023/11/10 12:42:05;;;;;;;5.87;2.43;;;;;;;;;;2616057;54;20524;-76
2023/11/10 12:44:31;;;;;;;7.70;2.67;;;;;;;;;;2614849;54;20442;-77
2023/11/10 12:47:00;;;;;;;4.57;2.60;;;;;;;;;;2614866;47;20436;-77
2023/11/10 12:49:29;;;;;;;6.83;2.97;;;;;;;;;;2615961;39;20802;-77
2023/11/10 12:52:03;;;;;;;5.13;2.17;;;;;;;;;;2615090;54;20387;-76
2023/11/10 12:54:29;;;;;;;4.70;2.30;;;;;;;;;;2615781;54;20468;-77
2023/11/10 12:56:56;;;;;;;5.63;2.33;;;;;;;;;;2614955;54;20418;-76
2023/11/10 12:59:30;;;;;;;4.67;2.23;;;;;;;;;;2614827;39;20939;-76
2023/11/10 13:01:56;;;;;;;4.00;2.00;;;;;;;;;;2613898;47;20490;-77
2023/11/10 13:04:22;;;;;;;4.33;2.20;;;;;;;;;;2615254;54;21224;-76
2023/11/10 13:06:48;;;;;;;5.23;1.77;;;;;;;;;;2614830;54;20439;-77
2023/11/10 13:09:18;;;;;;;5.37;1.90;;;;;;;;;;2615917;54;20520;-77
2023/11/10 13:11:45;;;;;;;4.67;1.70;;;;;;;;;;2615789;54;20415;-76
2023/11/10 13:14:13;;;;;;;10.30;2.90;;;;;;;;;;2615494;51;20418;-75
2023/11/10 13:16:41;;;;;;;3.33;2.10;;;;;;;;;;2615337;54;20473;-76
2023/11/10 13:19:08;;;;;;;6.30;2.10;;;;;;;;;;2616527;39;20868;-76
2023/11/10 13:21:34;;;;;;;5.10;2.00;;;;;;;;;;2614832;54;21094;-72
2023/11/10 13:24:02;;;;;;;3.20;2.10;;;;;;;;;;2613331;47;20415;-75
2023/11/10 13:26:29;;;;;;;3.10;2.50;;;;;;;;;;2613805;54;20550;-74
2023/11/10 13:28:57;;;;;;;6.70;2.60;;;;;;;;;;2613051;54;20412;-75
2023/11/10 13:31:28;;;;;;;4.23;1.90;;;;;;;;;;2614235;54;20476;-74
2023/11/10 13:33:55;;;;;;;4.93;2.37;;;;;;;;;;2613520;54;20407;-73
2023/11/10 13:36:21;;;;;;;7.70;2.40;;;;;;;;;;2613528;54;20416;-75
2023/11/10 13:38:47;;;;;;;4.17;2.23;;;;;;;;;;2614000;46;20415;-76
2023/11/10 13:41:14;;;;;;;3.23;2.47;;;;;;;;;;2613387;54;20419;-75
2023/11/10 13:43:42;;;;;;;3.90;1.83;;;;;;;;;;2615428;39;20836;-76
2023/11/10 13:46:08;;;;;;;5.10;1.67;;;;;;;;;;2615475;54;20562;-77
2023/11/10 13:48:35;;;;;;;5.50;2.40;;;;;;;;;;2616351;54;20547;-76
2023/11/10 13:51:11;;;;;;;4.47;2.00;;;;;;;;;;2616088;54;20428;-77
2023/11/10 13:53:38;;;;;;;4.57;2.23;;;;;;;;;;2616622;54;20440;-77
2023/11/10 13:56:07;;;;;;;4.80;2.20;;;;;;;;;;2615490;46;20451;-78
2023/11/10 13:58:33;;;;;;;3.30;1.60;;;;;;;;;;2615239;47;20414;-78
2023/11/10 14:00:59;;;;;;;12.10;2.00;;;;;;;;;;2615272;54;20937;-77
2023/11/10 14:03:34;;;;;;;5.10;2.30;;;;;;;;;;2615449;54;20420;-77
2023/11/10 14:06:00;;;;;;;3.20;1.80;;;;;;;;;;2615303;39;20923;-79
2023/11/10 14:08:26;;;;;;;2.10;1.20;;;;;;;;;;2615717;54;20445;-78
2023/11/10 14:10:52;;;;;;;4.80;1.30;;;;;;;;;;2615075;54;20419;-77
2023/11/10 14:13:18;;;;;;;2.87;1.67;;;;;;;;;;2614734;47;20431;-76
2023/11/10 14:15:45;;;;;;;2.73;1.53;;;;;;;;;;2614742;54;20408;-77
2023/11/10 14:18:12;;;;;;;3.93;1.90;;;;;;;;;;2615346;54;20415;-76
2023/11/10 14:20:38;;;;;;;2.90;1.80;;;;;;;;;;2615520;54;20422;-79
2023/11/10 14:23:04;;;;;;;2.33;1.20;;;;;;;;;;2614401;39;20789;-77
2023/11/10 14:25:31;;;;;;;4.23;1.80;;;;;;;;;;2613358;47;20429;-78
2023/11/10 14:27:57;;;;;;;4.13;1.60;;;;;;;;;;2613145;39;20939;-77
2023/11/10 14:30:23;;;;;;;3.20;1.27;;;;;;;;;;2613858;46;20431;-74
2023/11/10 14:32:53;;;;;;;2.60;1.77;;;;;;;;;;2612257;54;20443;-76
2023/11/10 14:35:19;;;;;;;4.10;2.03;;;;;;;;;;2613216;54;20430;-74
2023/11/10 14:37:46;;;;;;;3.03;1.90;;;;;;;;;;2612512;54;20414;-75
2023/11/10 14:40:23;;;;;;;2.10;1.80;;;;;;;;;;2612752;54;20511;-74
2023/11/10 14:42:49;;;;;;;3.13;1.90;;;;;;;;;;2612712;54;20965;-75